sensor_id;sensor_type;location;lat;lon;timestamp;P1;durP1;ratioP1;P2;durP2;ratioP2
60213;SDS011;46080;46.904;19.688;2022-08-30T00:01:03;10.60;;;8.90;;
60213;SDS011;46080;46.904;19.688;2022-08-30T00:03:41;8.68;;;7.70;;
60213;SDS011;46080;46.904;19.688;2022-08-30T00:06:10;8.68;;;7.80;;
60213;SDS011;46080;46.904;19.688;2022-08-30T00:08:37;9.48;;;8.57;;
60213;SDS011;46080;46.904;19.688;2022-08-30T00:11:05;10.02;;;8.02;;
60213;SDS011;46080;46.904;19.688;2022-08-30T00:13:37;9.40;;;8.50;;
60213;SDS011;46080;46.904;19.688;2022-08-30T00:16:04;9.02;;;8.18;;
60213;SDS011;46080;46.904;19.688;2022-08-30T00:18:33;9.70;;;8.80;;
60213;SDS011;46080;46.904;19.688;2022-08-30T00:21:00;8.13;;;7.43;;
60213;SDS011;46080;46.904;19.688;2022-08-30T00:23:27;9.32;;;8.48;;
60213;SDS011;46080;46.904;19.688;2022-08-30T00:25:53;8.95;;;7.57;;
60213;SDS011;46080;46.904;19.688;2022-08-30T00:28:18;8.63;;;7.85;;
60213;SDS011;46080;46.904;19.688;2022-08-30T00:30:44;9.30;;;8.15;;
60213;SDS011;46080;46.904;19.688;2022-08-30T00:33:11;9.32;;;8.43;;
60213;SDS011;46080;46.904;19.688;2022-08-30T00:35:39;9.55;;;8.73;;
60213;SDS011;46080;46.904;19.688;2022-08-30T00:38:05;9.40;;;8.25;;
60213;SDS011;46080;46.904;19.688;2022-08-30T00:40:31;10.15;;;8.10;;
60213;SDS011;46080;46.904;19.688;2022-08-30T00:42:58;9.20;;;7.72;;
60213;SDS011;46080;46.904;19.688;2022-08-30T00:45:27;9.60;;;8.40;;
60213;SDS011;46080;46.904;19.688;2022-08-30T00:47:56;8.02;;;7.22;;
60213;SDS011;46080;46.904;19.688;2022-08-30T00:50:24;8.95;;;7.93;;
60213;SDS011;46080;46.904;19.688;2022-08-30T00:52:53;8.73;;;7.68;;
60213;SDS011;46080;46.904;19.688;2022-08-30T00:55:24;9.32;;;7.85;;
60213;SDS011;46080;46.904;19.688;2022-08-30T00:57:52;8.48;;;7.38;;
60213;SDS011;46080;46.904;19.688;2022-08-30T01:00:21;9.23;;;8.25;;
60213;SDS011;46080;46.904;19.688;2022-08-30T01:02:47;10.60;;;9.25;;
60213;SDS011;46080;46.904;19.688;2022-08-30T01:05:13;9.18;;;8.27;;
60213;SDS011;46080;46.904;19.688;2022-08-30T01:07:39;9.85;;;8.85;;
60213;SDS011;46080;46.904;19.688;2022-08-30T01:10:06;8.85;;;7.95;;
60213;SDS011;46080;46.904;19.688;2022-08-30T01:12:34;9.30;;;8.40;;
60213;SDS011;46080;46.904;19.688;2022-08-30T01:15:01;10.32;;;8.90;;
60213;SDS011;46080;46.904;19.688;2022-08-30T01:17:28;9.95;;;8.85;;
60213;SDS011;46080;46.904;19.688;2022-08-30T01:19:55;9.48;;;8.45;;
60213;SDS011;46080;46.904;19.688;2022-08-30T01:22:33;11.93;;;9.18;;
60213;SDS011;46080;46.904;19.688;2022-08-30T01:25:15;8.98;;;8.07;;
60213;SDS011;46080;46.904;19.688;2022-08-30T01:27:44;9.27;;;8.38;;
60213;SDS011;46080;46.904;19.688;2022-08-30T01:30:15;9.77;;;8.77;;
60213;SDS011;46080;46.904;19.688;2022-08-30T01:32:41;11.40;;;10.15;;
60213;SDS011;46080;46.904;19.688;2022-08-30T01:35:10;11.18;;;8.75;;
60213;SDS011;46080;46.904;19.688;2022-08-30T01:37:37;9.95;;;8.95;;
60213;SDS011;46080;46.904;19.688;2022-08-30T01:40:03;9.18;;;8.15;;
60213;SDS011;46080;46.904;19.688;2022-08-30T01:42:31;10.32;;;8.23;;
60213;SDS011;46080;46.904;19.688;2022-08-30T01:44:57;10.90;;;9.75;;
60213;SDS011;46080;46.904;19.688;2022-08-30T01:47:23;9.50;;;8.50;;
60213;SDS011;46080;46.904;19.688;2022-08-30T01:49:49;10.40;;;9.30;;
60213;SDS011;46080;46.904;19.688;2022-08-30T01:52:16;10.50;;;8.95;;
60213;SDS011;46080;46.904;19.688;2022-08-30T01:54:43;10.65;;;8.65;;
60213;SDS011;46080;46.904;19.688;2022-08-30T01:57:11;9.40;;;8.50;;
60213;SDS011;46080;46.904;19.688;2022-08-30T01:59:39;10.63;;;9.52;;
60213;SDS011;46080;46.904;19.688;2022-08-30T02:02:08;11.73;;;9.05;;
60213;SDS011;46080;46.904;19.688;2022-08-30T02:04:34;13.45;;;9.32;;
60213;SDS011;46080;46.904;19.688;2022-08-30T02:07:01;13.10;;;10.40;;
60213;SDS011;46080;46.904;19.688;2022-08-30T02:09:28;11.57;;;9.73;;
60213;SDS011;46080;46.904;19.688;2022-08-30T02:11:54;11.18;;;9.85;;
60213;SDS011;46080;46.904;19.688;2022-08-30T02:14:19;10.73;;;9.63;;
60213;SDS011;46080;46.904;19.688;2022-08-30T02:16:45;12.80;;;9.10;;
60213;SDS011;46080;46.904;19.688;2022-08-30T02:19:11;11.95;;;9.77;;
60213;SDS011;46080;46.904;19.688;2022-08-30T02:21:37;10.98;;;9.82;;
60213;SDS011;46080;46.904;19.688;2022-08-30T02:24:03;11.30;;;10.20;;
60213;SDS011;46080;46.904;19.688;2022-08-30T02:26:29;11.80;;;9.80;;
60213;SDS011;46080;46.904;19.688;2022-08-30T02:28:54;13.13;;;10.52;;
60213;SDS011;46080;46.904;19.688;2022-08-30T02:31:20;12.77;;;10.43;;
60213;SDS011;46080;46.904;19.688;2022-08-30T02:33:48;11.35;;;10.25;;
60213;SDS011;46080;46.904;19.688;2022-08-30T02:36:16;11.55;;;9.80;;
60213;SDS011;46080;46.904;19.688;2022-08-30T02:38:42;13.18;;;11.30;;
60213;SDS011;46080;46.904;19.688;2022-08-30T02:41:08;12.88;;;11.13;;
60213;SDS011;46080;46.904;19.688;2022-08-30T02:43:33;13.55;;;10.82;;
60213;SDS011;46080;46.904;19.688;2022-08-30T02:45:59;15.75;;;12.07;;
60213;SDS011;46080;46.904;19.688;2022-08-30T02:48:25;12.50;;;11.20;;
60213;SDS011;46080;46.904;19.688;2022-08-30T02:50:51;14.02;;;11.48;;
60213;SDS011;46080;46.904;19.688;2022-08-30T02:53:17;12.50;;;10.98;;
60213;SDS011;46080;46.904;19.688;2022-08-30T02:55:45;12.57;;;11.27;;
60213;SDS011;46080;46.904;19.688;2022-08-30T02:58:11;13.43;;;11.60;;
60213;SDS011;46080;46.904;19.688;2022-08-30T03:00:37;12.80;;;11.27;;
60213;SDS011;46080;46.904;19.688;2022-08-30T03:03:03;13.98;;;11.57;;
60213;SDS011;46080;46.904;19.688;2022-08-30T03:05:32;13.93;;;12.30;;
60213;SDS011;46080;46.904;19.688;2022-08-30T03:07:58;13.35;;;11.30;;
60213;SDS011;46080;46.904;19.688;2022-08-30T03:10:25;12.90;;;11.35;;
60213;SDS011;46080;46.904;19.688;2022-08-30T03:12:52;13.68;;;12.23;;
60213;SDS011;46080;46.904;19.688;2022-08-30T03:15:19;13.35;;;11.15;;
60213;SDS011;46080;46.904;19.688;2022-08-30T03:17:46;13.85;;;11.98;;
60213;SDS011;46080;46.904;19.688;2022-08-30T03:20:11;14.90;;;12.02;;
60213;SDS011;46080;46.904;19.688;2022-08-30T03:22:38;14.10;;;12.38;;
60213;SDS011;46080;46.904;19.688;2022-08-30T03:25:04;13.57;;;12.13;;
60213;SDS011;46080;46.904;19.688;2022-08-30T03:27:30;14.13;;;12.50;;
60213;SDS011;46080;46.904;19.688;2022-08-30T03:29:56;13.90;;;11.25;;
60213;SDS011;46080;46.904;19.688;2022-08-30T03:32:22;12.63;;;11.02;;
60213;SDS011;46080;46.904;19.688;2022-08-30T03:34:48;13.30;;;10.75;;
60213;SDS011;46080;46.904;19.688;2022-08-30T03:37:14;13.68;;;11.07;;
60213;SDS011;46080;46.904;19.688;2022-08-30T03:39:41;13.10;;;11.73;;
60213;SDS011;46080;46.904;19.688;2022-08-30T03:42:07;15.80;;;11.85;;
60213;SDS011;46080;46.904;19.688;2022-08-30T03:44:32;15.48;;;11.80;;
60213;SDS011;46080;46.904;19.688;2022-08-30T03:46:58;16.63;;;12.65;;
60213;SDS011;46080;46.904;19.688;2022-08-30T03:49:24;13.23;;;11.82;;
60213;SDS011;46080;46.904;19.688;2022-08-30T03:51:49;14.23;;;11.50;;
60213;SDS011;46080;46.904;19.688;2022-08-30T03:54:15;12.45;;;11.07;;
60213;SDS011;46080;46.904;19.688;2022-08-30T03:56:41;15.77;;;13.40;;
60213;SDS011;46080;46.904;19.688;2022-08-30T03:59:08;17.17;;;13.50;;
60213;SDS011;46080;46.904;19.688;2022-08-30T04:01:34;17.48;;;12.93;;
60213;SDS011;46080;46.904;19.688;2022-08-30T04:03:59;16.95;;;13.32;;
60213;SDS011;46080;46.904;19.688;2022-08-30T04:06:25;14.15;;;12.63;;
60213;SDS011;46080;46.904;19.688;2022-08-30T04:08:52;18.05;;;13.48;;
60213;SDS011;46080;46.904;19.688;2022-08-30T04:11:17;15.82;;;13.75;;
60213;SDS011;46080;46.904;19.688;2022-08-30T04:13:44;16.45;;;13.93;;
60213;SDS011;46080;46.904;19.688;2022-08-30T04:16:11;16.45;;;14.07;;
60213;SDS011;46080;46.904;19.688;2022-08-30T04:18:37;20.25;;;15.50;;
60213;SDS011;46080;46.904;19.688;2022-08-30T04:21:03;19.92;;;15.07;;
60213;SDS011;46080;46.904;19.688;2022-08-30T04:23:29;18.95;;;15.00;;
60213;SDS011;46080;46.904;19.688;2022-08-30T04:25:55;19.38;;;14.70;;
60213;SDS011;46080;46.904;19.688;2022-08-30T04:28:20;17.30;;;14.32;;
60213;SDS011;46080;46.904;19.688;2022-08-30T04:30:47;15.77;;;13.60;;
60213;SDS011;46080;46.904;19.688;2022-08-30T04:33:13;18.65;;;14.13;;
60213;SDS011;46080;46.904;19.688;2022-08-30T04:35:41;15.70;;;14.10;;
60213;SDS011;46080;46.904;19.688;2022-08-30T04:38:09;15.57;;;13.60;;
60213;SDS011;46080;46.904;19.688;2022-08-30T04:40:35;18.58;;;14.80;;
60213;SDS011;46080;46.904;19.688;2022-08-30T04:43:01;17.67;;;13.88;;
60213;SDS011;46080;46.904;19.688;2022-08-30T04:45:28;16.17;;;13.85;;
60213;SDS011;46080;46.904;19.688;2022-08-30T04:47:54;16.27;;;14.63;;
60213;SDS011;46080;46.904;19.688;2022-08-30T04:50:20;16.80;;;15.00;;
60213;SDS011;46080;46.904;19.688;2022-08-30T04:52:46;18.48;;;14.55;;
60213;SDS011;46080;46.904;19.688;2022-08-30T04:55:12;17.98;;;15.35;;
60213;SDS011;46080;46.904;19.688;2022-08-30T04:57:39;17.90;;;15.40;;
60213;SDS011;46080;46.904;19.688;2022-08-30T05:00:06;17.02;;;14.57;;
60213;SDS011;46080;46.904;19.688;2022-08-30T05:02:35;16.85;;;14.00;;
60213;SDS011;46080;46.904;19.688;2022-08-30T05:05:01;15.68;;;14.07;;
60213;SDS011;46080;46.904;19.688;2022-08-30T05:07:46;18.50;;;15.02;;
60213;SDS011;46080;46.904;19.688;2022-08-30T05:10:12;17.55;;;15.02;;
60213;SDS011;46080;46.904;19.688;2022-08-30T05:12:38;21.48;;;15.52;;
60213;SDS011;46080;46.904;19.688;2022-08-30T05:15:05;16.73;;;14.25;;
60213;SDS011;46080;46.904;19.688;2022-08-30T05:17:33;17.02;;;14.73;;
60213;SDS011;46080;46.904;19.688;2022-08-30T05:19:59;18.98;;;14.77;;
60213;SDS011;46080;46.904;19.688;2022-08-30T05:22:26;19.13;;;16.15;;
60213;SDS011;46080;46.904;19.688;2022-08-30T05:24:52;16.02;;;14.35;;
60213;SDS011;46080;46.904;19.688;2022-08-30T05:27:18;17.08;;;14.85;;
60213;SDS011;46080;46.904;19.688;2022-08-30T05:29:44;20.10;;;15.00;;
60213;SDS011;46080;46.904;19.688;2022-08-30T05:32:09;19.42;;;13.90;;
60213;SDS011;46080;46.904;19.688;2022-08-30T05:34:35;17.25;;;15.45;;
60213;SDS011;46080;46.904;19.688;2022-08-30T05:37:01;16.92;;;14.50;;
60213;SDS011;46080;46.904;19.688;2022-08-30T05:39:27;17.38;;;15.30;;
60213;SDS011;46080;46.904;19.688;2022-08-30T05:41:55;17.42;;;14.50;;
60213;SDS011;46080;46.904;19.688;2022-08-30T05:44:21;15.90;;;13.50;;
60213;SDS011;46080;46.904;19.688;2022-08-30T05:46:47;15.90;;;14.20;;
60213;SDS011;46080;46.904;19.688;2022-08-30T05:49:13;15.00;;;13.25;;
60213;SDS011;46080;46.904;19.688;2022-08-30T05:51:39;15.65;;;13.05;;
60213;SDS011;46080;46.904;19.688;2022-08-30T05:54:05;16.30;;;13.95;;
60213;SDS011;46080;46.904;19.688;2022-08-30T05:56:33;16.08;;;14.15;;
60213;SDS011;46080;46.904;19.688;2022-08-30T05:59:01;14.50;;;12.90;;
60213;SDS011;46080;46.904;19.688;2022-08-30T06:01:36;14.48;;;13.02;;
60213;SDS011;46080;46.904;19.688;2022-08-30T06:04:05;14.82;;;13.23;;
60213;SDS011;46080;46.904;19.688;2022-08-30T06:06:32;14.82;;;13.32;;
60213;SDS011;46080;46.904;19.688;2022-08-30T06:08:59;14.40;;;12.93;;
60213;SDS011;46080;46.904;19.688;2022-08-30T06:11:25;14.77;;;13.25;;
60213;SDS011;46080;46.904;19.688;2022-08-30T06:13:52;14.95;;;13.20;;
60213;SDS011;46080;46.904;19.688;2022-08-30T06:16:20;13.75;;;12.07;;
60213;SDS011;46080;46.904;19.688;2022-08-30T06:18:48;14.80;;;12.88;;
60213;SDS011;46080;46.904;19.688;2022-08-30T06:21:21;13.45;;;11.75;;
60213;SDS011;46080;46.904;19.688;2022-08-30T06:23:53;13.43;;;12.05;;
60213;SDS011;46080;46.904;19.688;2022-08-30T06:26:19;14.32;;;11.63;;
60213;SDS011;46080;46.904;19.688;2022-08-30T06:28:46;12.02;;;10.73;;
60213;SDS011;46080;46.904;19.688;2022-08-30T06:31:13;11.77;;;10.68;;
60213;SDS011;46080;46.904;19.688;2022-08-30T06:33:41;11.27;;;10.00;;
60213;SDS011;46080;46.904;19.688;2022-08-30T06:36:11;10.23;;;9.18;;
60213;SDS011;46080;46.904;19.688;2022-08-30T06:38:40;12.93;;;11.05;;
60213;SDS011;46080;46.904;19.688;2022-08-30T06:41:10;12.05;;;9.77;;
60213;SDS011;46080;46.904;19.688;2022-08-30T06:43:38;10.07;;;8.98;;
60213;SDS011;46080;46.904;19.688;2022-08-30T06:46:04;9.45;;;8.55;;
60213;SDS011;46080;46.904;19.688;2022-08-30T06:48:33;10.25;;;9.13;;
60213;SDS011;46080;46.904;19.688;2022-08-30T06:50:59;11.13;;;9.48;;
60213;SDS011;46080;46.904;19.688;2022-08-30T06:53:25;12.50;;;9.70;;
60213;SDS011;46080;46.904;19.688;2022-08-30T06:56:10;10.23;;;8.63;;
60213;SDS011;46080;46.904;19.688;2022-08-30T06:58:37;10.73;;;8.50;;
60213;SDS011;46080;46.904;19.688;2022-08-30T07:01:04;9.85;;;8.88;;
60213;SDS011;46080;46.904;19.688;2022-08-30T07:03:30;12.52;;;9.10;;
60213;SDS011;46080;46.904;19.688;2022-08-30T07:05:56;9.75;;;8.75;;
60213;SDS011;46080;46.904;19.688;2022-08-30T07:08:22;9.02;;;8.02;;
60213;SDS011;46080;46.904;19.688;2022-08-30T07:10:50;9.38;;;8.35;;
60213;SDS011;46080;46.904;19.688;2022-08-30T07:13:18;9.35;;;8.43;;
60213;SDS011;46080;46.904;19.688;2022-08-30T07:15:45;10.30;;;8.27;;
60213;SDS011;46080;46.904;19.688;2022-08-30T07:18:12;7.80;;;7.05;;
60213;SDS011;46080;46.904;19.688;2022-08-30T07:20:57;9.73;;;7.47;;
60213;SDS011;46080;46.904;19.688;2022-08-30T07:25:55;8.43;;;7.72;;
60213;SDS011;46080;46.904;19.688;2022-08-30T07:28:21;11.55;;;7.72;;
60213;SDS011;46080;46.904;19.688;2022-08-30T07:30:47;9.75;;;6.75;;
60213;SDS011;46080;46.904;19.688;2022-08-30T07:33:12;8.88;;;7.40;;
60213;SDS011;46080;46.904;19.688;2022-08-30T07:35:38;9.93;;;7.60;;
60213;SDS011;46080;46.904;19.688;2022-08-30T07:38:04;11.35;;;7.82;;
60213;SDS011;46080;46.904;19.688;2022-08-30T07:40:32;8.52;;;7.63;;
60213;SDS011;46080;46.904;19.688;2022-08-30T07:42:58;9.00;;;7.88;;
60213;SDS011;46080;46.904;19.688;2022-08-30T07:45:26;8.93;;;7.72;;
60213;SDS011;46080;46.904;19.688;2022-08-30T07:47:52;7.88;;;7.07;;
60213;SDS011;46080;46.904;19.688;2022-08-30T07:50:18;9.35;;;7.00;;
60213;SDS011;46080;46.904;19.688;2022-08-30T07:52:43;9.02;;;7.15;;
60213;SDS011;46080;46.904;19.688;2022-08-30T07:55:09;7.60;;;6.60;;
60213;SDS011;46080;46.904;19.688;2022-08-30T07:57:35;8.20;;;6.88;;
60213;SDS011;46080;46.904;19.688;2022-08-30T08:00:01;8.85;;;6.63;;
60213;SDS011;46080;46.904;19.688;2022-08-30T08:02:37;7.03;;;6.32;;
60213;SDS011;46080;46.904;19.688;2022-08-30T08:05:05;7.47;;;6.32;;
60213;SDS011;46080;46.904;19.688;2022-08-30T08:07:32;6.90;;;5.70;;
60213;SDS011;46080;46.904;19.688;2022-08-30T08:09:58;8.20;;;6.28;;
60213;SDS011;46080;46.904;19.688;2022-08-30T08:12:25;6.85;;;5.82;;
60213;SDS011;46080;46.904;19.688;2022-08-30T08:14:51;8.93;;;5.72;;
60213;SDS011;46080;46.904;19.688;2022-08-30T08:17:17;10.68;;;5.63;;
60213;SDS011;46080;46.904;19.688;2022-08-30T08:19:43;7.53;;;5.53;;
60213;SDS011;46080;46.904;19.688;2022-08-30T08:22:09;7.90;;;5.95;;
60213;SDS011;46080;46.904;19.688;2022-08-30T08:24:35;6.70;;;5.90;;
60213;SDS011;46080;46.904;19.688;2022-08-30T08:27:00;7.35;;;5.65;;
60213;SDS011;46080;46.904;19.688;2022-08-30T08:29:26;11.18;;;5.25;;
60213;SDS011;46080;46.904;19.688;2022-08-30T08:31:52;11.73;;;5.75;;
60213;SDS011;46080;46.904;19.688;2022-08-30T08:34:18;7.90;;;6.28;;
60213;SDS011;46080;46.904;19.688;2022-08-30T08:36:47;7.10;;;5.13;;
60213;SDS011;46080;46.904;19.688;2022-08-30T08:39:14;5.85;;;5.13;;
60213;SDS011;46080;46.904;19.688;2022-08-30T08:49:37;7.35;;;5.30;;
60213;SDS011;46080;46.904;19.688;2022-08-30T08:52:05;8.32;;;5.38;;
60213;SDS011;46080;46.904;19.688;2022-08-30T08:54:53;7.97;;;4.80;;
60213;SDS011;46080;46.904;19.688;2022-08-30T08:57:23;7.30;;;5.20;;
60213;SDS011;46080;46.904;19.688;2022-08-30T08:59:49;5.75;;;4.22;;
60213;SDS011;46080;46.904;19.688;2022-08-30T09:02:25;8.80;;;5.20;;
60213;SDS011;46080;46.904;19.688;2022-08-30T09:04:59;7.43;;;5.20;;
60213;SDS011;46080;46.904;19.688;2022-08-30T09:07:28;5.55;;;4.40;;
60213;SDS011;46080;46.904;19.688;2022-08-30T09:09:59;7.78;;;4.97;;
60213;SDS011;46080;46.904;19.688;2022-08-30T09:12:25;6.72;;;4.13;;
60213;SDS011;46080;46.904;19.688;2022-08-30T09:14:54;5.35;;;4.40;;
60213;SDS011;46080;46.904;19.688;2022-08-30T09:27:31;5.55;;;4.97;;
60213;SDS011;46080;46.904;19.688;2022-08-30T09:30:03;5.65;;;4.80;;
60213;SDS011;46080;46.904;19.688;2022-08-30T09:35:20;6.28;;;5.05;;
60213;SDS011;46080;46.904;19.688;2022-08-30T09:40:35;5.93;;;4.72;;
60213;SDS011;46080;46.904;19.688;2022-08-30T09:43:09;8.98;;;4.65;;
60213;SDS011;46080;46.904;19.688;2022-08-30T09:45:48;7.25;;;4.80;;
60213;SDS011;46080;46.904;19.688;2022-08-30T09:53:42;7.30;;;4.10;;
60213;SDS011;46080;46.904;19.688;2022-08-30T10:18:37;5.57;;;4.50;;
60213;SDS011;46080;46.904;19.688;2022-08-30T10:21:27;5.55;;;3.90;;
60213;SDS011;46080;46.904;19.688;2022-08-30T10:24:00;6.57;;;4.13;;
60213;SDS011;46080;46.904;19.688;2022-08-30T10:26:30;9.68;;;4.10;;
60213;SDS011;46080;46.904;19.688;2022-08-30T10:29:13;4.55;;;3.55;;
60213;SDS011;46080;46.904;19.688;2022-08-30T10:31:56;4.50;;;3.72;;
60213;SDS011;46080;46.904;19.688;2022-08-30T10:34:30;4.38;;;3.55;;
60213;SDS011;46080;46.904;19.688;2022-08-30T10:37:08;4.00;;;3.30;;
60213;SDS011;46080;46.904;19.688;2022-08-30T10:39:53;4.43;;;3.75;;
60213;SDS011;46080;46.904;19.688;2022-08-30T10:42:26;4.05;;;3.00;;
60213;SDS011;46080;46.904;19.688;2022-08-30T10:45:09;4.63;;;3.58;;
60213;SDS011;46080;46.904;19.688;2022-08-30T10:47:50;4.63;;;3.00;;
60213;SDS011;46080;46.904;19.688;2022-08-30T10:50:19;8.75;;;3.90;;
60213;SDS011;46080;46.904;19.688;2022-08-30T10:55:23;4.78;;;3.25;;
60213;SDS011;46080;46.904;19.688;2022-08-30T10:57:51;5.60;;;3.58;;
60213;SDS011;46080;46.904;19.688;2022-08-30T11:00:24;5.60;;;3.33;;
60213;SDS011;46080;46.904;19.688;2022-08-30T11:10:57;4.28;;;3.13;;
60213;SDS011;46080;46.904;19.688;2022-08-30T11:13:37;4.72;;;3.08;;
60213;SDS011;46080;46.904;19.688;2022-08-30T11:16:09;4.53;;;2.80;;
60213;SDS011;46080;46.904;19.688;2022-08-30T11:18:44;6.22;;;2.65;;
60213;SDS011;46080;46.904;19.688;2022-08-30T11:23:56;3.88;;;2.75;;
60213;SDS011;46080;46.904;19.688;2022-08-30T11:42:47;4.15;;;2.30;;
60213;SDS011;46080;46.904;19.688;2022-08-30T11:47:53;7.05;;;2.22;;
60213;SDS011;46080;46.904;19.688;2022-08-30T11:53:08;3.70;;;2.25;;
60213;SDS011;46080;46.904;19.688;2022-08-30T12:01:45;4.00;;;2.92;;
60213;SDS011;46080;46.904;19.688;2022-08-30T12:07:00;5.45;;;2.78;;
60213;SDS011;46080;46.904;19.688;2022-08-30T12:11:58;2.10;;;1.70;;
60213;SDS011;46080;46.904;19.688;2022-08-30T12:18:06;3.17;;;2.22;;
60213;SDS011;46080;46.904;19.688;2022-08-30T12:20:30;4.55;;;1.92;;
60213;SDS011;46080;46.904;19.688;2022-08-30T12:25:44;8.45;;;2.30;;
60213;SDS011;46080;46.904;19.688;2022-08-30T12:28:15;5.65;;;2.10;;
60213;SDS011;46080;46.904;19.688;2022-08-30T12:30:50;3.25;;;2.03;;
60213;SDS011;46080;46.904;19.688;2022-08-30T12:33:25;2.20;;;1.50;;
60213;SDS011;46080;46.904;19.688;2022-08-30T12:35:56;3.83;;;1.60;;
60213;SDS011;46080;46.904;19.688;2022-08-30T12:38:26;4.72;;;2.05;;
60213;SDS011;46080;46.904;19.688;2022-08-30T12:40:58;3.08;;;1.67;;
60213;SDS011;46080;46.904;19.688;2022-08-30T12:46:01;2.50;;;1.80;;
60213;SDS011;46080;46.904;19.688;2022-08-30T12:48:33;4.43;;;1.70;;
60213;SDS011;46080;46.904;19.688;2022-08-30T12:51:01;3.60;;;1.30;;
60213;SDS011;46080;46.904;19.688;2022-08-30T12:53:29;2.55;;;1.50;;
60213;SDS011;46080;46.904;19.688;2022-08-30T12:55:59;4.68;;;1.70;;
60213;SDS011;46080;46.904;19.688;2022-08-30T13:03:59;1.65;;;1.20;;
60213;SDS011;46080;46.904;19.688;2022-08-30T13:06:35;2.97;;;1.27;;
60213;SDS011;46080;46.904;19.688;2022-08-30T13:09:01;3.67;;;1.50;;
60213;SDS011;46080;46.904;19.688;2022-08-30T13:11:26;2.70;;;1.38;;
60213;SDS011;46080;46.904;19.688;2022-08-30T13:16:45;3.63;;;1.55;;
60213;SDS011;46080;46.904;19.688;2022-08-30T13:22:00;1.77;;;1.50;;
60213;SDS011;46080;46.904;19.688;2022-08-30T13:24:26;2.00;;;1.50;;
60213;SDS011;46080;46.904;19.688;2022-08-30T13:26:57;2.35;;;1.40;;
60213;SDS011;46080;46.904;19.688;2022-08-30T13:29:26;1.55;;;1.38;;
60213;SDS011;46080;46.904;19.688;2022-08-30T13:31:53;2.78;;;1.50;;
60213;SDS011;46080;46.904;19.688;2022-08-30T13:34:19;5.38;;;1.38;;
60213;SDS011;46080;46.904;19.688;2022-08-30T13:36:48;3.60;;;1.70;;
60213;SDS011;46080;46.904;19.688;2022-08-30T13:39:18;2.95;;;1.38;;
60213;SDS011;46080;46.904;19.688;2022-08-30T13:41:44;3.28;;;1.60;;
60213;SDS011;46080;46.904;19.688;2022-08-30T13:44:09;4.25;;;1.80;;
60213;SDS011;46080;46.904;19.688;2022-08-30T13:46:35;2.35;;;2.15;;
60213;SDS011;46080;46.904;19.688;2022-08-30T13:49:05;2.95;;;1.70;;
60213;SDS011;46080;46.904;19.688;2022-08-30T13:51:34;2.90;;;1.25;;
60213;SDS011;46080;46.904;19.688;2022-08-30T13:54:00;4.68;;;1.77;;
60213;SDS011;46080;46.904;19.688;2022-08-30T13:56:26;3.30;;;1.58;;
60213;SDS011;46080;46.904;19.688;2022-08-30T13:58:59;6.20;;;1.73;;
60213;SDS011;46080;46.904;19.688;2022-08-30T14:01:26;3.47;;;1.52;;
60213;SDS011;46080;46.904;19.688;2022-08-30T14:03:53;2.22;;;1.77;;
60213;SDS011;46080;46.904;19.688;2022-08-30T14:06:19;4.22;;;1.90;;
60213;SDS011;46080;46.904;19.688;2022-08-30T14:08:45;4.60;;;1.50;;
60213;SDS011;46080;46.904;19.688;2022-08-30T14:11:12;2.40;;;1.58;;
60213;SDS011;46080;46.904;19.688;2022-08-30T14:13:40;3.67;;;1.83;;
60213;SDS011;46080;46.904;19.688;2022-08-30T14:16:09;3.35;;;1.65;;
60213;SDS011;46080;46.904;19.688;2022-08-30T14:18:35;2.00;;;1.55;;
60213;SDS011;46080;46.904;19.688;2022-08-30T14:21:01;5.18;;;1.98;;
60213;SDS011;46080;46.904;19.688;2022-08-30T14:23:27;3.13;;;1.55;;
60213;SDS011;46080;46.904;19.688;2022-08-30T14:25:53;3.03;;;1.98;;
60213;SDS011;46080;46.904;19.688;2022-08-30T14:28:19;2.75;;;1.70;;
60213;SDS011;46080;46.904;19.688;2022-08-30T14:30:45;3.33;;;1.98;;
60213;SDS011;46080;46.904;19.688;2022-08-30T14:33:12;2.15;;;1.63;;
60213;SDS011;46080;46.904;19.688;2022-08-30T14:35:37;2.80;;;2.05;;
60213;SDS011;46080;46.904;19.688;2022-08-30T14:38:04;3.38;;;1.88;;
60213;SDS011;46080;46.904;19.688;2022-08-30T14:40:30;2.38;;;1.80;;
60213;SDS011;46080;46.904;19.688;2022-08-30T14:42:55;2.47;;;1.90;;
60213;SDS011;46080;46.904;19.688;2022-08-30T14:45:21;3.63;;;2.05;;
60213;SDS011;46080;46.904;19.688;2022-08-30T14:47:47;2.38;;;1.77;;
60213;SDS011;46080;46.904;19.688;2022-08-30T14:50:13;3.80;;;2.20;;
60213;SDS011;46080;46.904;19.688;2022-08-30T14:52:40;3.47;;;2.17;;
60213;SDS011;46080;46.904;19.688;2022-08-30T14:55:06;3.25;;;1.67;;
60213;SDS011;46080;46.904;19.688;2022-08-30T14:57:36;2.65;;;1.58;;
60213;SDS011;46080;46.904;19.688;2022-08-30T15:00:03;2.90;;;1.80;;
60213;SDS011;46080;46.904;19.688;2022-08-30T15:02:30;2.53;;;1.60;;
60213;SDS011;46080;46.904;19.688;2022-08-30T15:04:55;2.17;;;1.95;;
60213;SDS011;46080;46.904;19.688;2022-08-30T15:07:21;2.58;;;1.77;;
60213;SDS011;46080;46.904;19.688;2022-08-30T15:09:47;2.58;;;1.98;;
60213;SDS011;46080;46.904;19.688;2022-08-30T15:12:12;3.95;;;1.67;;
60213;SDS011;46080;46.904;19.688;2022-08-30T15:14:38;2.83;;;1.90;;
60213;SDS011;46080;46.904;19.688;2022-08-30T15:17:04;3.55;;;2.15;;
60213;SDS011;46080;46.904;19.688;2022-08-30T15:19:30;3.05;;;1.83;;
60213;SDS011;46080;46.904;19.688;2022-08-30T15:21:58;4.32;;;2.55;;
60213;SDS011;46080;46.904;19.688;2022-08-30T15:24:26;3.58;;;2.20;;
60213;SDS011;46080;46.904;19.688;2022-08-30T15:26:52;2.22;;;1.85;;
60213;SDS011;46080;46.904;19.688;2022-08-30T15:29:18;2.10;;;1.77;;
60213;SDS011;46080;46.904;19.688;2022-08-30T15:31:45;4.07;;;1.85;;
60213;SDS011;46080;46.904;19.688;2022-08-30T15:34:13;2.85;;;1.73;;
60213;SDS011;46080;46.904;19.688;2022-08-30T15:36:40;5.40;;;2.28;;
60213;SDS011;46080;46.904;19.688;2022-08-30T15:39:08;3.55;;;1.65;;
60213;SDS011;46080;46.904;19.688;2022-08-30T15:41:35;3.05;;;1.70;;
60213;SDS011;46080;46.904;19.688;2022-08-30T15:44:01;3.20;;;2.00;;
60213;SDS011;46080;46.904;19.688;2022-08-30T15:46:28;3.05;;;1.67;;
60213;SDS011;46080;46.904;19.688;2022-08-30T15:49:13;3.78;;;1.92;;
60213;SDS011;46080;46.904;19.688;2022-08-30T15:51:41;2.55;;;2.10;;
60213;SDS011;46080;46.904;19.688;2022-08-30T15:54:09;3.33;;;1.90;;
60213;SDS011;46080;46.904;19.688;2022-08-30T15:56:36;4.93;;;2.13;;
60213;SDS011;46080;46.904;19.688;2022-08-30T15:59:02;2.67;;;1.90;;
60213;SDS011;46080;46.904;19.688;2022-08-30T16:01:28;3.67;;;2.00;;
60213;SDS011;46080;46.904;19.688;2022-08-30T16:03:53;4.32;;;2.17;;
60213;SDS011;46080;46.904;19.688;2022-08-30T16:06:20;3.95;;;2.40;;
60213;SDS011;46080;46.904;19.688;2022-08-30T16:08:49;4.40;;;2.20;;
60213;SDS011;46080;46.904;19.688;2022-08-30T16:11:16;4.55;;;2.28;;
60213;SDS011;46080;46.904;19.688;2022-08-30T16:13:45;4.47;;;2.13;;
60213;SDS011;46080;46.904;19.688;2022-08-30T16:16:11;2.25;;;1.88;;
60213;SDS011;46080;46.904;19.688;2022-08-30T16:18:37;2.47;;;2.20;;
60213;SDS011;46080;46.904;19.688;2022-08-30T16:21:13;2.25;;;1.75;;
60213;SDS011;46080;46.904;19.688;2022-08-30T16:23:44;3.88;;;1.85;;
60213;SDS011;46080;46.904;19.688;2022-08-30T16:26:11;2.72;;;1.88;;
60213;SDS011;46080;46.904;19.688;2022-08-30T16:28:38;3.35;;;1.90;;
60213;SDS011;46080;46.904;19.688;2022-08-30T16:31:06;3.80;;;2.03;;